Flight Track Log - Related Links

Times and Time Zones

All times are in EDT time to prevent confusion due to time zone crossing. See the WJA175 flight status page for this flight to view local times or setup timezone preferences in your user account.


Time Position Orientation Groundspeed Altitude Reporting Facility
EDT Latitude Longitude Course Direction KTS MPH feet Rate Location/Type
Mon 09:10:11 AM 43.6833 -79.6333 47° Northeast 50 58 700  Level Toronto Center
Mon 09:11:11 AM 43.7167 -79.5833 47° Northeast 180 207 2,400 1,950 Climbing Toronto Center
Mon 09:12:11 AM 43.7667 -79.5333 36° Northeast 210 242 4,600 2,350 Climbing Toronto Center
Mon 09:13:11 AM 43.8167 -79.6167 310° West 260 299 7,100 2,650 Climbing Toronto Center
Mon 09:14:11 AM 43.8500 -79.7000 299° West 270 311 9,900 2,200 Climbing Toronto Center
Mon 09:15:11 AM 43.8667 -79.8167 281° West 300 345 11,500 2,100 Climbing Toronto Center
Mon 09:16:11 AM 43.9000 -79.9333 292° West 340 391 14,100 2,750 Climbing Toronto Center
Mon 09:17:11 AM 43.9167 -80.0667 280° West 360 414 17,000 2,650 Climbing Toronto Center
Mon 09:18:11 AM 43.9833 -80.1833 308° West 370 426 19,400 2,400 Climbing Toronto Center
Mon 09:19:11 AM 44.0500 -80.3000 309° West 380 437 21,800 2,250 Climbing Toronto Center
Mon 09:20:11 AM 44.1333 -80.4167 315° West 390 449 23,900 2,100 Climbing Toronto Center
Mon 09:21:11 AM 44.2000 -80.5167 313° West 400 460 26,000 2,000 Climbing Toronto Center
Mon 09:22:11 AM 44.2833 -80.6500 311° West 410 472 27,900 1,550 Climbing Toronto Center
Mon 09:23:11 AM 44.3500 -80.7833 305° West 420 483 29,100 1,400 Climbing Toronto Center
Mon 09:24:11 AM 44.4167 -80.9167 305° West 440 506 30,700 1,650 Climbing Toronto Center
Mon 09:25:11 AM 44.5000 -81.0333 315° West 440 506 32,400 1,700 Climbing Toronto Center
Mon 09:26:11 AM 44.5833 -81.1500 315° West 440 506 34,100 1,550 Climbing Toronto Center
Mon 09:27:11 AM 44.6500 -81.3000 302° West 430 495 35,500 1,400 Climbing Toronto Center
Mon 09:28:11 AM 44.7333 -81.4167 315° West 420 483 36,900 1,250 Climbing Toronto Center
Mon 09:29:11 AM 44.8167 -81.5333 315° West 420 483 38,000 550 Climbing Toronto Center
Mon 09:30:11 AM 44.9000 -81.6833 308° West 420 483 38,000  Level Toronto Center
Mon 09:31:11 AM 44.9667 -81.8000 309° West 420 483 38,000  Level Toronto Center
Mon 09:32:11 AM 45.0500 -81.9167 315° West 420 483 38,000  Level Toronto Center
Mon 09:33:11 AM 45.1167 -82.0500 305° West 420 483 38,000  Level Toronto Center
Mon 09:34:11 AM 45.1833 -82.1667 309° West 420 483 38,000  Level Toronto Center
Mon 09:35:11 AM 45.2667 -82.3167 308° West 420 483 38,000  Level Toronto Center
Mon 09:36:11 AM 45.3333 -82.4333 309° West 420 483 38,000  Level Toronto Center
Mon 09:37:11 AM 45.4167 -82.5500 316° Northwest 420 483 38,000  Level Toronto Center
Mon 09:38:11 AM 45.5000 -82.6833 312° West 420 483 38,000  Level Toronto Center
Mon 09:39:11 AM 45.5667 -82.8167 306° West 420 483 38,000  Level Toronto Center
Mon 09:40:11 AM 45.6333 -82.9500 306° West 420 483 38,000  Level Toronto Center
Mon 09:41:11 AM 45.7167 -83.0667 316° Northwest 420 483 38,000  Level Toronto Center
Mon 09:42:11 AM 45.8000 -83.2000 312° West 420 483 38,000  Level Toronto Center
Mon 09:43:11 AM 45.8500 -83.3500 296° West 420 483 38,000  Level Toronto Center
Mon 09:44:11 AM 45.9333 -83.4667 316° Northwest 420 483 38,000  Level Toronto Center
Mon 09:45:11 AM 46.0000 -83.6000 306° West 420 483 38,000  Level Toronto Center
Mon 09:46:11 AM 46.0833 -83.7167 316° Northwest 420 483 38,000  Level Toronto Center
Mon 09:47:11 AM 46.1500 -83.8667 303° West 420 483 38,000  Level Toronto Center
Mon 09:48:11 AM 46.2167 -84.0000 306° West 420 483 38,000  Level Toronto Center
Mon 09:49:11 AM 46.3000 -84.1167 316° Northwest 420 483 38,000  Level Toronto Center
Mon 09:50:11 AM 46.3667 -84.2500 306° West 420 483 38,000  Level Toronto Center
Mon 09:51:11 AM 46.4333 -84.4000 303° West 430 495 38,000  Level Toronto Center
Mon 09:52:11 AM 46.5000 -84.5500 303° West 430 495 38,000  Level Toronto Center
Mon 09:53:11 AM 46.5500 -84.7000 296° West 420 483 38,000  Level Toronto Center
Mon 09:54:11 AM 46.6000 -84.8500 296° West 430 495 38,000  Level Toronto Center
Mon 09:54:43 AM 46.6333 -84.8833 326° Northwest 420 483 38,000  Level Winnipeg Center
Mon 09:55:43 AM 46.6833 -85.0333 296° West 420 483 38,000  Level Winnipeg Center
Mon 09:56:43 AM 46.7500 -85.1667 306° West 420 483 38,000  Level Winnipeg Center
Mon 09:57:43 AM 46.8000 -85.3333 294° West 420 483 38,000  Level Winnipeg Center
Mon 09:58:43 AM 46.8500 -85.4833 296° West 420 483 38,000  Level Winnipeg Center
Mon 09:59:43 AM 46.9167 -85.6167 306° West 420 483 38,000  Level Winnipeg Center
Mon 10:00:43 AM 46.9667 -85.7833 294° West 420 483 38,000  Level Winnipeg Center
Mon 10:01:43 AM 47.0333 -85.9167 306° West 420 483 38,000  Level Winnipeg Center
Mon 10:02:43 AM 47.0833 -86.0833 294° West 410 472 38,000  Level Winnipeg Center
Mon 10:03:43 AM 47.1333 -86.2167 299° West 410 472 38,000  Level Winnipeg Center
Mon 10:04:43 AM 47.2000 -86.3833 301° West 410 472 38,000  Level Winnipeg Center
Mon 10:05:43 AM 47.2333 -86.5167 290° West 410 472 38,000  Level Winnipeg Center
Mon 10:06:43 AM 47.2833 -86.6833 294° West 410 472 38,000  Level Winnipeg Center
Mon 10:07:43 AM 47.3500 -86.8167 306° West 420 483 38,000  Level Winnipeg Center
Mon 10:08:43 AM 47.4000 -86.9833 294° West 420 483 38,000  Level Winnipeg Center
Mon 10:09:43 AM 47.4667 -87.1167 307° West 420 483 38,000  Level Winnipeg Center
Mon 10:10:43 AM 47.5167 -87.2833 294° West 420 483 38,000  Level Winnipeg Center
Mon 10:11:43 AM 47.5500 -87.4167 290° West 420 483 38,000  Level Winnipeg Center
Mon 10:12:43 AM 47.6167 -87.5833 301° West 410 472 38,000  Level Winnipeg Center
Mon 10:13:43 AM 47.6667 -87.7167 299° West 420 483 38,000  Level Winnipeg Center
Mon 10:14:43 AM 47.7333 -87.8833 301° West 420 483 38,000  Level Winnipeg Center
Mon 10:15:43 AM 47.7833 -88.0333 296° West 420 483 38,000  Level Winnipeg Center
Mon 10:16:43 AM 47.8167 -88.2000 287° West 420 483 38,000  Level Winnipeg Center
Mon 10:17:43 AM 47.8833 -88.3333 307° West 420 483 38,000  Level Winnipeg Center
Mon 10:18:43 AM 47.9333 -88.5000 294° West 420 483 38,000  Level Winnipeg Center
Mon 10:19:43 AM 48.0000 -88.6333 307° West 420 483 38,000  Level Winnipeg Center
Mon 10:20:43 AM 48.0333 -88.8167 285° West 420 483 38,000  Level Winnipeg Center
Mon 10:21:43 AM 48.0833 -88.9833 294° West 420 483 38,000  Level Winnipeg Center
Mon 10:22:43 AM 48.1500 -89.1167 307° West 420 483 38,000  Level Winnipeg Center
Mon 10:23:43 AM 48.1833 -89.2667 288° West 420 483 38,000  Level Winnipeg Center
Mon 10:24:43 AM 48.2333 -89.4333 294° West 410 472 38,000  Level Winnipeg Center
Mon 10:25:43 AM 48.2833 -89.6000 294° West 410 472 38,000  Level Winnipeg Center
Mon 10:26:43 AM 48.3167 -89.7667 287° West 410 472 38,000  Level Winnipeg Center
Mon 10:27:43 AM 48.3500 -89.9167 289° West 410 472 38,000  Level Winnipeg Center
Mon 10:28:43 AM 48.4000 -90.0833 294° West 410 472 38,000  Level Winnipeg Center
Mon 10:29:43 AM 48.4333 -90.2667 285° West 420 483 38,000  Level Winnipeg Center
Mon 10:30:43 AM 48.4667 -90.4000 291° West 420 483 38,000  Level Winnipeg Center
Mon 10:31:43 AM 48.5000 -90.5833 285° West 420 483 38,000  Level Winnipeg Center
Mon 10:32:43 AM 48.5333 -90.7500 287° West 420 483 38,000  Level Winnipeg Center
Mon 10:33:43 AM 48.5833 -90.9167 294° West 420 483 38,000  Level Winnipeg Center
Mon 10:34:43 AM 48.6167 -91.1000 285° West 430 495 38,000  Level Winnipeg Center
Mon 10:35:43 AM 48.6500 -91.2667 287° West 430 495 38,000  Level Winnipeg Center
Mon 10:36:43 AM 48.6833 -91.4500 285° West 430 495 38,000  Level Winnipeg Center
Mon 10:37:43 AM 48.7333 -91.6167 295° West 430 495 38,000  Level Winnipeg Center
Mon 10:38:43 AM 48.7667 -91.7833 287° West 430 495 38,000  Level Winnipeg Center
Mon 10:39:43 AM 48.8000 -91.9333 289° West 430 495 38,000  Level Winnipeg Center
Mon 10:40:43 AM 48.8333 -92.1167 286° West 430 495 38,000  Level Winnipeg Center
Mon 10:41:43 AM 48.8833 -92.2833 295° West 430 495 38,000  Level Winnipeg Center
Mon 10:42:43 AM 48.9000 -92.4667 278° West 430 495 38,000  Level Winnipeg Center
Mon 10:43:43 AM 48.9500 -92.6333 295° West 430 495 38,000  Level Winnipeg Center
Mon 10:44:43 AM 48.9833 -92.8167 286° West 430 495 38,000  Level Winnipeg Center
Mon 10:45:43 AM 49.0000 -92.9833 279° West 430 495 38,000  Level Winnipeg Center
Mon 10:46:43 AM 49.0500 -93.1667 293° West 430 495 38,000  Level Winnipeg Center
Mon 10:47:43 AM 49.0833 -93.3333 287° West 430 495 38,000  Level Winnipeg Center
Mon 10:48:43 AM 49.1000 -93.5167 278° West 430 495 38,000  Level Winnipeg Center
Mon 10:49:43 AM 49.1500 -93.7000 293° West 430 495 38,000  Level Winnipeg Center
Mon 10:50:43 AM 49.1833 -93.8667 287° West 430 495 38,000  Level Winnipeg Center
Mon 10:51:43 AM 49.2167 -94.0500 286° West 430 495 38,000  Level Winnipeg Center
Mon 10:52:43 AM 49.2500 -94.2167 287° West 430 495 38,000 -50 Level Winnipeg Center
Mon 10:53:43 AM 49.2833 -94.4000 286° West 430 495 37,900 -1,250 Descending Winnipeg Center
Mon 10:54:43 AM 49.3167 -94.5833 286° West 430 495 35,500 -2,200 Descending Winnipeg Center
Mon 10:55:43 AM 49.3333 -94.7667 278° West 420 483 33,500 -2,100 Descending Winnipeg Center
Mon 10:56:43 AM 49.3833 -94.9333 295° West 410 472 31,300 -2,050 Descending Winnipeg Center
Mon 10:57:43 AM 49.4167 -95.0833 289° West 410 472 29,400 -2,000 Descending Winnipeg Center
Mon 10:58:43 AM 49.4333 -95.2667 278° West 400 460 27,300 -1,950 Descending Winnipeg Center
Mon 10:59:43 AM 49.4667 -95.4167 289° West 390 449 25,500 -1,900 Descending Winnipeg Center
Mon 11:00:43 AM 49.4833 -95.5833 279° West 380 437 23,500 -1,900 Descending Winnipeg Center
Mon 11:01:43 AM 49.5167 -95.7333 289° West 370 426 21,700 -1,750 Descending Winnipeg Center
Mon 11:02:43 AM 49.5333 -95.8833 280° West 370 426 20,000 -1,800 Descending Winnipeg Center
Mon 11:03:43 AM 49.5833 -96.0167 300° West 360 414 18,100 -1,850 Descending Winnipeg Center
Mon 11:04:43 AM 49.6333 -96.1667 297° West 350 403 16,300 -1,750 Descending Winnipeg Center
Mon 11:05:43 AM 49.6667 -96.3000 291° West 340 391 14,600 -1,800 Descending Winnipeg Center
Mon 11:06:43 AM 49.7000 -96.4167 294° West 320 368 12,700 -1,900 Descending Winnipeg Center
Mon 11:07:43 AM 49.7000 -96.5500 270° West 330 380 10,800 -1,450 Descending Winnipeg Center
Mon 11:08:43 AM 49.7167 -96.7000 280° West 290 334 9,800 -1,400 Descending Winnipeg Center
Mon 11:09:43 AM 49.7167 -96.8167 270° West 280 322 8,000 -1,650 Descending Winnipeg Center
Mon 11:10:43 AM 49.7167 -96.9333 270° West 270 311 6,500 -1,250 Descending Winnipeg Center
Mon 11:11:43 AM 49.7333 -97.0500 283° West 270 311 5,500 -750 Descending Winnipeg Center
Mon 11:12:43 AM 49.7333 -97.1500 270° West 220 253 5,000 -800 Descending Winnipeg Center
Mon 11:13:43 AM 49.7333 -97.2167 270° West 200 230 3,900 -1,100 Descending Winnipeg Center
Mon 11:14:43 AM 49.7667 -97.2500 327° Northwest 180 207 2,800 -1,100 Descending Winnipeg Center

Login

Don't have an account? Register now (free) for customized features, flight alerts, and more!